createdAt,value
2018-12-05T00:00:38.298Z,101731.05
2018-12-05T00:03:06.655Z,101734.59
2018-12-05T00:05:34.998Z,101728.05
2018-12-05T00:08:03.336Z,101728.89
2018-12-05T00:10:31.647Z,101726.16
2018-12-05T00:12:59.987Z,101734.90
2018-12-05T00:15:28.309Z,101729.72
2018-12-05T00:17:56.633Z,101726.19
2018-12-05T00:20:24.980Z,101723.47
2018-12-05T00:22:53.300Z,101724.55
2018-12-05T00:25:21.671Z,101718.56
2018-12-05T00:27:50.619Z,101719.66
2018-12-05T00:30:19.009Z,101723.47
2018-12-05T00:32:47.724Z,101724.55
2018-12-05T00:35:16.040Z,101726.16
2018-12-05T00:37:44.410Z,101734.34
2018-12-05T00:40:13.017Z,101733.53
2018-12-05T00:42:41.358Z,101736.55
2018-12-05T00:45:09.711Z,101736.55
2018-12-05T00:47:38.026Z,101727.00
2018-12-05T00:50:06.603Z,101727.00
2018-12-05T00:52:35.185Z,101725.63
2018-12-05T00:55:03.522Z,101728.89
2018-12-05T00:57:31.838Z,101724.55
2018-12-05T01:00:00.167Z,101727.56
2018-12-05T01:02:28.552Z,101727.56
2018-12-05T01:04:56.865Z,101730.28
2018-12-05T01:07:25.198Z,101717.45
2018-12-05T01:13:00.378Z,101720.73
2018-12-05T01:15:42.612Z,101723.47
2018-12-05T01:18:10.994Z,101719.38
2018-12-05T01:20:39.324Z,101712.56
2018-12-05T01:23:07.707Z,101719.94
2018-12-05T01:25:46.313Z,101713.36
2018-12-05T01:28:14.707Z,101704.37
2018-12-05T01:30:43.033Z,101709.83
2018-12-05T01:33:11.372Z,101702.45
2018-12-05T01:35:39.710Z,101702.17
2018-12-05T01:38:08.069Z,101700.22
2018-12-05T01:40:36.364Z,101702.14
2018-12-05T01:43:04.694Z,101705.15
2018-12-05T01:45:32.990Z,101693.41
2018-12-05T01:48:01.326Z,101696.41
2018-12-05T01:50:29.664Z,101683.58
2018-12-05T01:52:57.998Z,101688.79
2018-12-05T01:55:26.302Z,101695.61
2018-12-05T01:57:54.613Z,101693.41
2018-12-05T02:00:22.979Z,101699.14
2018-12-05T02:02:51.264Z,101702.14
2018-12-05T02:05:19.678Z,101705.95
2018-12-05T02:07:47.993Z,101707.84
2018-12-05T02:10:16.337Z,101697.74
2018-12-05T02:12:44.702Z,101694.73
2018-12-05T02:15:13.026Z,101686.80
2018-12-05T02:17:41.356Z,101690.58
2018-12-05T02:20:09.825Z,101696.55
2018-12-05T02:22:38.145Z,101704.17
2018-12-05T02:25:06.621Z,101711.23
2018-12-05T02:27:34.954Z,101714.48
2018-12-05T02:30:03.422Z,101708.19
2018-12-05T02:32:31.763Z,101704.63
2018-12-05T02:35:00.106Z,101695.89
2018-12-05T02:37:28.470Z,101690.96
2018-12-05T02:39:56.777Z,101686.56
2018-12-05T02:42:25.073Z,101693.64
2018-12-05T02:44:53.423Z,101684.91
2018-12-05T02:47:21.751Z,101690.61
2018-12-05T02:49:50.078Z,101687.87
2018-12-05T02:52:18.403Z,101685.67
2018-12-05T02:54:46.714Z,101674.50
2018-12-05T02:57:15.026Z,101673.94
2018-12-05T02:59:43.378Z,101672.85
2018-12-05T03:02:11.684Z,101685.91
2018-12-05T03:04:40.037Z,101676.90
2018-12-05T03:07:08.339Z,101680.95
2018-12-05T03:09:36.703Z,101676.02
2018-12-05T03:12:05.167Z,101677.06
2018-12-05T03:14:33.515Z,101672.13
2018-12-05T03:17:01.832Z,101673.73
2018-12-05T03:19:30.297Z,101676.70
2018-12-05T03:21:58.651Z,101684.02
2018-12-05T03:24:27.532Z,101668.20
2018-12-05T03:26:55.846Z,101678.52
2018-12-05T03:29:24.152Z,101673.59
2018-12-05T03:31:52.510Z,101670.83
2018-12-05T03:34:20.805Z,101668.34
2018-12-05T03:36:49.112Z,101671.58
2018-12-05T03:39:17.468Z,101673.50
2018-12-05T03:41:45.752Z,101671.02
2018-12-05T03:44:14.094Z,101668.02
2018-12-05T03:46:42.424Z,101666.66
2018-12-05T03:49:10.759Z,101665.84
2018-12-05T03:51:39.043Z,101667.20
2018-12-05T03:54:07.390Z,101660.13
2018-12-05T03:56:35.679Z,101668.81
2018-12-05T03:59:04.073Z,101668.53
2018-12-05T04:01:32.366Z,101668.01
2018-12-05T04:04:00.774Z,101668.29
2018-12-05T04:06:29.151Z,101674.02
2018-12-05T04:08:57.450Z,101670.45
2018-12-05T04:11:25.774Z,101664.77
2018-12-05T04:13:54.089Z,101665.33
2018-12-05T04:16:22.420Z,101661.53
2018-12-05T04:18:50.733Z,101652.28
2018-12-05T04:21:19.061Z,101650.92
2018-12-05T04:23:48.009Z,101655.28
2018-12-05T04:26:16.323Z,101650.13
2018-12-05T04:28:44.667Z,101659.66
2018-12-05T04:31:13.002Z,101656.93
2018-12-05T04:33:41.391Z,101658.29
2018-12-05T04:36:09.725Z,101673.55
2018-12-05T04:38:38.125Z,101672.47
2018-12-05T04:41:06.453Z,101678.48
2018-12-05T04:43:34.777Z,101663.27
2018-12-05T04:46:03.110Z,101667.07
2018-12-05T04:48:31.417Z,101669.83
2018-12-05T04:51:00.726Z,101668.20
2018-12-05T04:53:29.106Z,101676.64
2018-12-05T04:55:57.398Z,101672.32
2018-12-05T04:58:25.742Z,101672.05
2018-12-05T05:00:54.046Z,101668.23
2018-12-05T05:03:22.362Z,101660.63
2018-12-05T05:05:50.704Z,101668.28
2018-12-05T05:08:19.007Z,101664.48
2018-12-05T05:10:47.368Z,101670.21
2018-12-05T05:13:15.669Z,101670.77
2018-12-05T05:15:43.976Z,101677.06
2018-12-05T05:18:12.342Z,101664.59
2018-12-05T05:20:40.708Z,101652.91
2018-12-05T05:23:09.111Z,101657.02
2018-12-05T05:25:37.472Z,101652.98
2018-12-05T05:28:05.850Z,101653.26
2018-12-05T05:30:34.209Z,101645.92
2018-12-05T05:33:02.542Z,101645.68
2018-12-05T05:35:30.848Z,101646.55
2018-12-05T05:37:59.243Z,101643.58
2018-12-05T05:40:27.565Z,101641.97
2018-12-05T05:42:55.901Z,101647.45
2018-12-05T05:45:24.214Z,101642.59
2018-12-05T05:47:52.550Z,101637.17
2018-12-05T05:50:20.883Z,101627.41
2018-12-05T05:52:49.254Z,101629.88
2018-12-05T05:55:17.549Z,101627.17
2018-12-05T05:57:45.877Z,101626.40
2018-12-05T06:00:14.168Z,101617.40
2018-12-05T06:02:42.504Z,101613.05
2018-12-05T06:08:10.593Z,101621.03
2018-12-05T06:10:38.945Z,101630.59
2018-12-05T06:13:07.298Z,101619.14
2018-12-05T06:15:35.606Z,101618.36
2018-12-05T06:18:03.960Z,101616.20
2018-12-05T06:20:32.278Z,101627.14
2018-12-05T06:23:00.607Z,101624.95
2018-12-05T06:25:28.921Z,101622.52
2018-12-05T06:28:10.012Z,101575.20
2018-12-05T06:30:38.390Z,101613.52
2018-12-05T06:33:06.729Z,101622.27
2018-12-05T06:35:35.053Z,101627.72
2018-12-05T06:38:16.239Z,101640.02
2018-12-05T06:40:44.551Z,101631.05
2018-12-05T06:43:12.863Z,101626.13
2018-12-05T06:45:41.177Z,101626.13
2018-12-05T06:48:09.497Z,101623.39
2018-12-05T06:50:37.802Z,101631.31
2018-12-05T06:53:06.126Z,101637.07
2018-12-05T06:55:57.575Z,101593.05
2018-12-05T06:58:40.148Z,101635.42
2018-12-05T07:01:22.806Z,101585.41
2018-12-05T07:04:03.538Z,101594.98
2018-12-05T07:06:31.839Z,101632.73
2018-12-05T07:09:12.550Z,101635.74
2018-12-05T07:12:04.001Z,101641.19
2018-12-05T07:14:35.775Z,101643.94
2018-12-05T07:17:10.348Z,101651.63
2018-12-05T07:19:42.175Z,101656.80
2018-12-05T07:22:25.115Z,101667.47
2018-12-05T07:25:12.490Z,101608.40
2018-12-05T07:27:40.911Z,101639.88
2018-12-05T07:30:21.836Z,101644.25
2018-12-05T07:32:50.207Z,101644.25
2018-12-05T07:35:18.506Z,101656.55
2018-12-05T07:37:46.867Z,101655.45
2018-12-05T07:40:32.210Z,101648.61
2018-12-05T07:43:13.832Z,101581.89
2018-12-05T07:46:01.182Z,101643.16
2018-12-05T07:48:52.564Z,101646.97
2018-12-05T07:51:24.261Z,101635.78
2018-12-05T07:54:12.134Z,101643.73
2018-12-05T07:57:10.607Z,101613.33
2018-12-05T07:59:58.699Z,101632.25
2018-12-05T08:02:39.801Z,101575.09
2018-12-05T08:05:21.239Z,101581.66
2018-12-05T08:07:52.853Z,101625.12
2018-12-05T08:10:34.009Z,101625.94
2018-12-05T08:13:15.564Z,101625.66
2018-12-05T08:15:52.032Z,101618.83
2018-12-05T08:18:33.169Z,101612.28
2018-12-05T08:24:07.842Z,101605.16
2018-12-05T08:26:40.156Z,101602.67
2018-12-05T08:29:20.991Z,101592.28
2018-12-05T08:32:01.699Z,101587.33
2018-12-05T08:34:33.855Z,101583.22
2018-12-05T08:37:19.118Z,101578.30
2018-12-05T08:40:04.084Z,101572.53
2018-12-05T08:42:47.236Z,101571.42
2018-12-05T08:45:27.941Z,101524.49
2018-12-05T08:48:10.106Z,101545.76
2018-12-05T08:50:55.091Z,101572.19
2018-12-05T08:53:29.063Z,101572.97
2018-12-05T08:56:25.173Z,101577.88
2018-12-05T08:58:56.292Z,101569.11
2018-12-05T09:01:27.739Z,101577.56
2018-12-05T09:04:00.129Z,101570.95
2018-12-05T09:06:31.357Z,101575.87
2018-12-05T09:09:12.318Z,101583.22
2018-12-05T09:11:40.734Z,101573.61
2018-12-05T09:14:32.412Z,101571.14
2018-12-05T09:17:13.191Z,101570.83
2018-12-05T09:19:41.510Z,101571.34
2018-12-05T09:22:24.253Z,101564.22
2018-12-05T09:24:55.907Z,101573.20
2018-12-05T09:27:36.563Z,101563.58
2018-12-05T09:30:18.899Z,101562.44
2018-12-05T09:33:01.524Z,101549.27
2018-12-05T09:35:43.010Z,101498.22
2018-12-05T09:38:23.838Z,101542.06
2018-12-05T09:41:05.210Z,101535.70
2018-12-05T09:43:47.323Z,101485.53
2018-12-05T09:46:30.172Z,101525.48
2018-12-05T09:52:11.549Z,101520.47
2018-12-05T09:54:41.384Z,101514.41
2018-12-05T09:57:23.346Z,101458.80
2018-12-05T10:06:00.271Z,101507.64
2018-12-05T10:08:36.166Z,101503.23
2018-12-05T10:11:10.142Z,101497.96
2018-12-05T10:20:04.961Z,101494.50
2018-12-05T10:22:47.692Z,101491.69
2018-12-05T10:25:36.977Z,101494.94
2018-12-05T10:28:19.817Z,101490.77
2018-12-05T10:31:02.405Z,101490.17
2018-12-05T10:33:43.158Z,101491.48
2018-12-05T10:36:24.703Z,101445.98
2018-12-05T10:39:06.638Z,101459.88
2018-12-05T10:41:48.703Z,101501.41
2018-12-05T10:44:30.241Z,101437.53
2018-12-05T10:47:11.792Z,101472.69
2018-12-05T10:49:53.206Z,101424.16
2018-12-05T10:52:35.653Z,101458.03
2018-12-05T10:55:29.335Z,101395.42
2018-12-05T10:57:57.688Z,101431.84
2018-12-05T11:03:26.244Z,101430.45
2018-12-05T11:06:12.697Z,101430.45
2018-12-05T11:11:39.546Z,101429.59
2018-12-05T11:14:30.058Z,101421.34
2018-12-05T11:17:17.509Z,101379.47
2018-12-05T11:22:46.500Z,101415.72
2018-12-05T11:27:50.022Z,101397.57
2018-12-05T11:30:18.376Z,101397.00
2018-12-05T11:32:46.678Z,101395.34
2018-12-05T11:35:15.097Z,101379.98
2018-12-05T11:37:56.996Z,101381.00
2018-12-05T11:40:25.303Z,101375.70
2018-12-05T11:43:06.279Z,101378.68
2018-12-05T11:45:47.824Z,101371.81
2018-12-05T11:48:29.413Z,101375.93
2018-12-05T11:50:57.693Z,101377.30
2018-12-05T11:53:38.459Z,101367.11
2018-12-05T11:56:19.881Z,101355.59
2018-12-05T11:59:00.571Z,101359.45
2018-12-05T12:01:43.227Z,101354.50
2018-12-05T12:04:24.714Z,101346.83
2018-12-05T12:07:10.190Z,101350.95
2018-12-05T12:09:54.007Z,101355.33
2018-12-05T12:12:48.332Z,101341.33
2018-12-05T12:15:33.745Z,101342.13
2018-12-05T12:18:02.202Z,101335.58
2018-12-05T12:20:43.652Z,101291.64
2018-12-05T12:23:25.098Z,101327.95
2018-12-05T12:26:06.583Z,101274.91
2018-12-05T12:28:48.059Z,101277.40
2018-12-05T12:31:19.375Z,101311.72
2018-12-05T12:34:02.423Z,101311.14
2018-12-05T12:36:43.175Z,101265.55
2018-12-05T12:39:24.749Z,101265.62
2018-12-05T12:42:05.409Z,101317.15
2018-12-05T12:44:50.906Z,101310.54
2018-12-05T12:47:31.619Z,101282.81
2018-12-05T12:50:12.446Z,101307.41
2018-12-05T12:52:54.794Z,101292.52
2018-12-05T12:55:35.589Z,101296.83
2018-12-05T12:58:18.083Z,101291.84
2018-12-05T13:00:59.626Z,101289.60
2018-12-05T13:03:41.214Z,101287.94
2018-12-05T13:06:24.001Z,101285.70
2018-12-05T13:08:55.429Z,101278.77
2018-12-05T13:11:36.484Z,101282.59
2018-12-05T13:14:17.752Z,101263.54
2018-12-05T13:16:51.086Z,101257.43
2018-12-05T13:19:26.681Z,101259.02
2018-12-05T13:22:15.967Z,101256.23
2018-12-05T13:24:57.850Z,101249.51
2018-12-05T13:27:38.619Z,101242.56
2018-12-05T13:30:23.135Z,101236.16
2018-12-05T13:32:54.395Z,101226.97
2018-12-05T13:35:24.390Z,101230.17
2018-12-05T13:38:09.385Z,101229.27
2018-12-05T13:40:51.965Z,101225.86
2018-12-05T13:46:49.593Z,101172.91
2018-12-05T13:49:17.891Z,101207.12
2018-12-05T13:52:00.535Z,101200.23
2018-12-05T13:54:28.878Z,101190.61
2018-12-05T13:57:11.737Z,101189.81
2018-12-05T13:59:40.043Z,101192.61
2018-12-05T14:02:22.013Z,101196.73
2018-12-05T14:05:10.170Z,101157.72
2018-12-05T14:07:38.517Z,101188.19
2018-12-05T14:10:20.560Z,101191.23
2018-12-05T14:12:49.055Z,101178.85
2018-12-05T14:15:31.706Z,101175.60
2018-12-05T14:18:01.747Z,101168.98
2018-12-05T14:23:43.927Z,101160.84
2018-12-05T14:26:12.286Z,101130.60
2018-12-05T14:28:52.949Z,101159.30
2018-12-05T14:31:44.994Z,101160.14
2018-12-05T14:34:27.964Z,101157.39
2018-12-05T14:37:10.641Z,101146.18
2018-12-05T14:40:04.194Z,101148.73
2018-12-05T14:42:56.303Z,101141.72
2018-12-05T14:45:43.903Z,101147.59
2018-12-05T14:48:19.041Z,101139.17
2018-12-05T14:50:47.410Z,101131.79
2018-12-05T14:53:15.777Z,101128.84
2018-12-05T14:55:44.093Z,101122.83
2018-12-05T14:58:25.481Z,101115.53
2018-12-05T15:01:07.020Z,101123.78
2018-12-05T15:03:59.019Z,101119.70
2018-12-05T15:06:50.388Z,101115.58
2018-12-05T15:09:32.350Z,101119.99
2018-12-05T15:12:26.814Z,101110.45
2018-12-05T15:15:08.343Z,101106.37
2018-12-05T15:17:36.635Z,101112.98
2018-12-05T15:20:05.111Z,101103.12
2018-12-05T15:22:47.946Z,101097.95
2018-12-05T15:25:33.457Z,101086.95
2018-12-05T15:28:01.750Z,101091.37
2018-12-05T15:30:30.266Z,101082.62
2018-12-05T15:33:20.480Z,101077.45
2018-12-05T15:35:48.782Z,101081.25
2018-12-05T15:38:17.132Z,101070.84
2018-12-05T15:40:45.448Z,101068.63
2018-12-05T15:43:32.918Z,101058.27
2018-12-05T15:46:13.773Z,101054.14
2018-12-05T15:48:55.236Z,101060.76
2018-12-05T15:51:36.808Z,101055.02
2018-12-05T15:54:18.356Z,101042.39
2018-12-05T15:56:46.627Z,101041.34
2018-12-05T15:59:29.417Z,101030.66
2018-12-05T16:02:11.863Z,101027.41
2018-12-05T16:04:53.438Z,100975.05
2018-12-05T16:07:34.879Z,101010.41
2018-12-05T16:10:03.225Z,100999.17
2018-12-05T16:12:50.666Z,100992.93
2018-12-05T16:15:18.969Z,100990.48
2018-12-05T16:18:01.153Z,100995.42
2018-12-05T16:23:19.328Z,100985.56
2018-12-05T16:26:10.442Z,100995.17
2018-12-05T16:28:47.042Z,100939.64
2018-12-05T16:31:27.669Z,100949.76
2018-12-05T16:33:55.974Z,100972.08
2018-12-05T16:36:36.671Z,100945.34
2018-12-05T16:39:19.987Z,100970.70
2018-12-05T16:41:48.251Z,100975.57
2018-12-05T16:44:30.308Z,100934.61
2018-12-05T16:47:11.817Z,100957.09
2018-12-05T16:49:53.372Z,100916.02
2018-12-05T16:52:43.611Z,100943.31
2018-12-05T16:55:24.263Z,100942.19
2018-12-05T16:57:52.692Z,100944.84
2018-12-05T17:00:39.951Z,100953.09
2018-12-05T17:03:22.847Z,100910.14
2018-12-05T17:05:51.094Z,100954.72
2018-12-05T17:08:31.856Z,100953.05
2018-12-05T17:11:30.221Z,100954.67
2018-12-05T17:14:18.380Z,100949.97
2018-12-05T17:16:49.842Z,100949.09
2018-12-05T17:19:18.152Z,100943.55
2018-12-05T17:21:46.498Z,100944.05
2018-12-05T17:24:14.829Z,100939.84
2018-12-05T17:27:03.121Z,100946.09
2018-12-05T17:29:31.475Z,100941.67
2018-12-05T17:31:59.871Z,100940.49
2018-12-05T17:34:45.110Z,100886.34
2018-12-05T17:37:13.372Z,100931.61
2018-12-05T17:39:41.734Z,100931.86
2018-12-05T17:42:23.980Z,100885.91
2018-12-05T17:45:05.533Z,100925.23
2018-12-05T17:47:47.095Z,100926.66
2018-12-05T17:50:15.365Z,100926.36
2018-12-05T17:52:43.677Z,100921.66
2018-12-05T17:55:12.019Z,100914.00
2018-12-05T17:57:40.321Z,100894.17
2018-12-05T18:00:23.099Z,100886.76
2018-12-05T18:03:10.373Z,100850.44
2018-12-05T18:05:51.202Z,100874.77
2018-12-05T18:08:19.484Z,100861.88
2018-12-05T18:10:47.840Z,100855.34
2018-12-05T18:13:28.907Z,100806.75
2018-12-05T18:16:10.336Z,100838.91
2018-12-05T18:19:04.794Z,100790.52
2018-12-05T18:21:33.140Z,100828.48
2018-12-05T18:24:01.519Z,100829.28
2018-12-05T18:26:29.861Z,100837.53
2018-12-05T18:28:58.254Z,100838.36
2018-12-05T18:31:26.601Z,100846.27
2018-12-05T18:34:08.472Z,100842.39
2018-12-05T18:36:36.751Z,100834.91
2018-12-05T18:39:19.520Z,100801.87
2018-12-05T18:42:01.940Z,100833.80
2018-12-05T18:44:45.429Z,100834.03
2018-12-05T18:47:26.938Z,100795.55
2018-12-05T18:50:08.699Z,100808.17
2018-12-05T18:52:49.896Z,100806.80
2018-12-05T18:55:31.333Z,100818.92
2018-12-05T18:57:59.744Z,100814.80
2018-12-05T19:00:40.509Z,100819.96
2018-12-05T19:03:08.837Z,100821.03
2018-12-05T19:05:49.736Z,100810.28
2018-12-05T19:08:18.064Z,100802.19
2018-12-05T19:10:46.425Z,100793.64
2018-12-05T19:13:14.736Z,100791.38
2018-12-05T19:15:49.563Z,100783.94
2018-12-05T19:18:31.671Z,100782.80
2018-12-05T19:20:59.967Z,100783.94
2018-12-05T19:23:42.762Z,100777.39
2018-12-05T19:26:11.050Z,100779.90
2018-12-05T19:28:55.895Z,100767.43
2018-12-05T19:31:37.401Z,100762.83
2018-12-05T19:34:05.751Z,100762.03
2018-12-05T19:36:48.412Z,100718.66
2018-12-05T19:39:16.728Z,100760.32
2018-12-05T19:41:45.033Z,100754.27
2018-12-05T19:44:13.389Z,100747.41
2018-12-05T19:46:41.742Z,100750.64
2018-12-05T19:49:22.490Z,100733.02
2018-12-05T19:52:05.011Z,100722.81
2018-12-05T19:54:46.579Z,100730.17
2018-12-05T19:57:14.893Z,100722.51
2018-12-05T19:59:43.209Z,100717.01
2018-12-05T20:02:25.269Z,100676.66
2018-12-05T20:04:53.671Z,100728.80
2018-12-05T20:07:21.964Z,100726.88
2018-12-05T20:10:04.216Z,100691.63
2018-12-05T20:12:45.647Z,100732.04
2018-12-05T20:15:13.967Z,100736.09
2018-12-05T20:17:58.697Z,100740.72
2018-12-05T20:20:27.104Z,100732.70
2018-12-05T20:22:55.372Z,100734.88
2018-12-05T20:25:23.654Z,100733.78
2018-12-05T20:28:06.448Z,100735.95
2018-12-05T20:30:34.724Z,100733.20
2018-12-05T20:33:17.512Z,100701.37
2018-12-05T20:35:59.096Z,100726.81
2018-12-05T20:38:41.441Z,100731.77
2018-12-05T20:41:09.727Z,100714.68
2018-12-05T20:43:50.781Z,100713.06
2018-12-05T20:46:32.312Z,100675.26
2018-12-05T20:49:13.879Z,100716.39
2018-12-05T20:51:42.205Z,100704.56
2018-12-05T20:54:23.096Z,100659.38
2018-12-05T20:57:04.555Z,100687.81
2018-12-05T20:59:45.934Z,100698.89
2018-12-05T21:02:36.020Z,100653.09
2018-12-05T21:05:17.914Z,100655.02
2018-12-05T21:07:46.211Z,100690.25
2018-12-05T21:10:14.548Z,100696.30
2018-12-05T21:12:55.512Z,100688.39
2018-12-05T21:15:23.814Z,100685.64
2018-12-05T21:17:52.196Z,100681.02
2018-12-05T21:20:34.397Z,100638.53
2018-12-05T21:23:02.748Z,100680.05
2018-12-05T21:25:47.433Z,100693.21
2018-12-05T21:28:15.753Z,100681.66
2018-12-05T21:30:56.675Z,100689.09
2018-12-05T21:33:39.245Z,100692.08
2018-12-05T21:36:07.555Z,100690.16
2018-12-05T21:38:35.803Z,100694.83
2018-12-05T21:41:17.880Z,100695.90
2018-12-05T21:43:59.418Z,100681.02
2018-12-05T21:46:27.729Z,100676.56
2018-12-05T21:49:08.487Z,100674.64
2018-12-05T21:51:49.997Z,100666.39
2018-12-05T21:54:32.499Z,100663.06
2018-12-05T21:57:14.907Z,100655.88
2018-12-05T21:59:57.476Z,100661.38
2018-12-05T22:02:25.771Z,100661.86
2018-12-05T22:05:06.714Z,100658.88
2018-12-05T22:07:35.021Z,100651.17
2018-12-05T22:10:16.004Z,100653.13
2018-12-05T22:12:44.319Z,100648.18
2018-12-05T22:15:12.583Z,100650.14
2018-12-05T22:17:40.884Z,100645.53
2018-12-05T22:20:32.962Z,100638.66
2018-12-05T22:23:13.890Z,100643.91
2018-12-05T22:25:56.054Z,100651.03
2018-12-05T22:28:36.843Z,100641.16
2018-12-05T22:31:28.946Z,100636.45
2018-12-05T22:34:11.667Z,100627.41
2018-12-05T22:36:39.955Z,100624.66
2018-12-05T22:39:21.992Z,100625.22
2018-12-05T22:41:50.299Z,100615.05
2018-12-05T22:44:32.272Z,100615.05
2018-12-05T22:47:00.739Z,100613.91
2018-12-05T22:49:29.019Z,100619.41
2018-12-05T22:52:11.971Z,100615.53
2018-12-05T22:54:54.575Z,100614.40
2018-12-05T22:57:36.192Z,100603.64
2018-12-05T23:00:18.391Z,100609.63
2018-12-05T23:02:46.667Z,100613.75
2018-12-05T23:05:38.183Z,100600.24
2018-12-05T23:08:20.156Z,100600.14
2018-12-05T23:11:00.859Z,100549.45
2018-12-05T23:13:42.408Z,100590.86
2018-12-05T23:16:23.959Z,100596.36
2018-12-05T23:18:52.218Z,100593.13
2018-12-05T23:21:33.170Z,100593.68
2018-12-05T23:24:01.434Z,100580.52
2018-12-05T23:26:29.726Z,100584.16
2018-12-05T23:28:58.006Z,100582.30
2018-12-05T23:31:40.672Z,100583.19
2018-12-05T23:34:21.300Z,100535.31
2018-12-05T23:36:49.567Z,100575.34
2018-12-05T23:39:17.886Z,100573.25
2018-12-05T23:41:59.390Z,100534.34
2018-12-05T23:44:27.681Z,100564.03
2018-12-05T23:47:19.030Z,100561.59
2018-12-05T23:49:47.320Z,100554.48
2018-12-05T23:52:29.454Z,100512.38
2018-12-05T23:55:11.033Z,100557.08
2018-12-05T23:57:39.338Z,100560.62
